Time;durP1;ratioP1;P1;durP2;ratioP2;P2;SDS_P1;SDS_P2;PMS_P1;PMS_P2;Temp;Humidity;BMP_temperature;BMP_pressure;BME280_temperature;BME280_humidity;BME280_pressure;Samples;Min_cycle;Max_cycle;Signal;HPM_P1;HPM_P2
2023/03/06 00:00:44;;;;;;;0.70;0.70;;;;;;;4.88;92.87;99830.41;4946719;28;20027;-71
2023/03/06 00:03:10;;;;;;;0.40;0.40;;;;;;;4.90;92.75;99825.50;4935281;29;20080;-71
2023/03/06 00:05:35;;;;;;;0.55;0.55;;;;;;;4.96;92.79;99819.59;4941042;29;20577;-71
2023/03/06 00:08:01;;;;;;;0.40;0.40;;;;;;;4.92;92.57;99815.25;4934397;29;20039;-71
2023/03/06 00:10:29;;;;;;;1.17;0.65;;;;;;;4.91;92.99;99816.41;4944995;28;20047;-70
2023/03/06 00:13:03;;;;;;;0.98;0.98;;;;;;;5.00;92.75;99814.34;4951264;29;20034;-72
2023/03/06 00:15:29;;;;;;;0.85;0.65;;;;;;;5.05;92.07;99822.16;4934126;28;20043;-71
2023/03/06 00:17:56;;;;;;;0.30;0.30;;;;;;;5.01;91.84;99810.59;4939101;29;20162;-71
2023/03/06 00:20:22;;;;;;;0.80;0.73;;;;;;;4.92;92.12;99808.06;4956137;28;20035;-71
2023/03/06 00:22:48;;;;;;;0.60;0.47;;;;;;;4.91;91.70;99811.84;4935842;29;20121;-71
2023/03/06 00:25:19;;;;;;;0.52;0.52;;;;;;;4.95;91.85;99806.59;4955052;28;20067;-71
2023/03/06 00:27:45;;;;;;;;;;;;;;;4.95;91.54;99806.59;4939151;29;20399;-71
2023/03/06 00:30:13;;;;;;;0.40;0.40;;;;;;;4.84;91.98;99795.63;4955891;28;19955;-71
2023/03/06 00:32:41;;;;;;;0.30;0.30;;;;;;;4.63;91.92;99791.59;4955616;28;20035;-71
2023/03/06 00:35:07;;;;;;;0.40;0.40;;;;;;;4.68;92.55;99794.00;4938246;29;20042;-71
2023/03/06 00:37:32;;;;;;;0.43;0.43;;;;;;;4.76;92.53;99793.09;4944952;28;20027;-71
2023/03/06 00:39:58;;;;;;;5.15;1.27;;;;;;;4.72;92.24;99785.00;4954044;28;20062;-70
2023/03/06 00:42:24;;;;;;;0.95;0.95;;;;;;;4.81;92.60;99793.63;4949524;29;20067;-71
2023/03/06 00:44:50;;;;;;;0.70;0.60;;;;;;;4.80;92.43;99794.75;4952806;28;20046;-71
2023/03/06 00:47:16;;;;;;;0.65;0.65;;;;;;;4.75;92.38;99786.97;4933334;28;20484;-71
2023/03/06 00:49:45;;;;;;;0.30;0.30;;;;;;;4.59;92.05;99792.22;4940985;29;20067;-72
2023/03/06 00:52:11;;;;;;;0.30;0.30;;;;;;;4.52;92.67;99783.25;4941660;29;20026;-71
2023/03/06 00:54:37;;;;;;;0.88;0.88;;;;;;;4.69;92.80;99793.66;4931594;29;20043;-71
2023/03/06 00:57:03;;;;;;;0.50;0.50;;;;;;;4.68;91.98;99792.13;4954766;28;20257;-71
2023/03/06 00:59:28;;;;;;;0.40;0.40;;;;;;;4.66;92.10;99794.34;4927738;29;20061;-72
2023/03/06 01:01:54;;;;;;;0.30;0.30;;;;;;;4.72;92.21;99790.34;4934795;28;20031;-71
2023/03/06 01:04:20;;;;;;;1.20;0.50;;;;;;;4.77;92.01;99789.31;4955571;29;20045;-71
2023/03/06 01:06:47;;;;;;;1.00;1.00;;;;;;;4.85;91.23;99796.41;4936374;29;20055;-71
2023/03/06 01:09:12;;;;;;;0.20;0.20;;;;;;;4.79;91.46;99790.53;4941443;29;20061;-72
2023/03/06 01:11:38;;;;;;;1.73;1.17;;;;;;;4.82;91.25;99787.19;4942444;28;20504;-71
2023/03/06 01:14:04;;;;;;;0.38;0.38;;;;;;;4.81;90.90;99777.63;4933533;29;20531;-71
2023/03/06 01:16:29;;;;;;;0.30;0.30;;;;;;;4.85;90.67;99783.84;4932108;29;20039;-71
2023/03/06 01:18:55;;;;;;;0.30;0.30;;;;;;;4.79;89.95;99785.19;4938234;28;20035;-72
2023/03/06 01:21:21;;;;;;;0.35;0.35;;;;;;;4.74;91.03;99782.78;4954681;29;20065;-71
2023/03/06 01:23:47;;;;;;;0.82;0.40;;;;;;;4.74;90.54;99790.78;4920781;29;20058;-71
2023/03/06 01:26:13;;;;;;;0.32;0.32;;;;;;;4.68;90.85;99778.78;4953055;28;20178;-71
2023/03/06 01:28:39;;;;;;;0.68;0.68;;;;;;;4.74;91.14;99774.78;4954967;28;20027;-71
2023/03/06 01:31:06;;;;;;;0.35;0.35;;;;;;;4.86;89.89;99774.72;4916436;29;20019;-71
2023/03/06 01:33:31;;;;;;;2.00;0.90;;;;;;;4.70;90.08;99768.56;4938045;29;20066;-72
2023/03/06 01:35:57;;;;;;;0.57;0.57;;;;;;;4.58;90.44;99771.25;4937245;29;20089;-71
2023/03/06 01:38:22;;;;;;;1.20;0.55;;;;;;;4.56;91.08;99770.81;4937633;29;20042;-71
2023/03/06 01:40:49;;;;;;;0.30;0.30;;;;;;;4.61;91.58;99770.56;4921122;29;20114;-71
2023/03/06 01:43:27;;;;;;;0.30;0.30;;;;;;;4.61;90.98;99767.91;4935352;29;20035;-70
2023/03/06 01:46:32;;;;;;;0.43;0.43;;;;;;;4.67;90.15;99766.56;4928054;29;20039;-70
2023/03/06 01:49:27;;;;;;;0.40;0.40;;;;;;;4.43;91.62;99758.63;4943931;28;20109;-72
2023/03/06 01:52:13;;;;;;;0.20;0.20;;;;;;;4.42;92.40;99751.72;4917450;29;20130;-71
2023/03/06 01:54:47;;;;;;;1.33;0.50;;;;;;;4.48;92.31;99756.50;4952682;29;20038;-71
2023/03/06 01:57:17;;;;;;;0.25;0.25;;;;;;;4.47;91.68;99754.94;4935838;29;20039;-72
2023/03/06 01:59:43;;;;;;;0.60;0.60;;;;;;;4.55;91.88;99758.56;4920365;28;20134;-71
2023/03/06 02:02:11;;;;;;;0.80;0.52;;;;;;;4.59;91.96;99754.13;4949115;29;20500;-71
2023/03/06 02:04:39;;;;;;;0.45;0.45;;;;;;;4.58;91.76;99753.38;4936307;29;20031;-70
2023/03/06 02:07:06;;;;;;;0.25;0.25;;;;;;;4.61;91.78;99754.56;4936906;29;20042;-71
2023/03/06 02:09:33;;;;;;;0.65;0.65;;;;;;;4.66;91.76;99761.56;4934942;29;20070;-71
2023/03/06 02:12:06;;;;;;;0.98;0.85;;;;;;;4.63;91.62;99760.34;4921616;29;20119;-71
2023/03/06 02:14:33;;;;;;;0.20;0.20;;;;;;;4.62;90.74;99761.47;4935563;29;20500;-71
2023/03/06 02:16:59;;;;;;;0.75;0.65;;;;;;;4.63;90.88;99756.94;4948723;29;20031;-71
2023/03/06 02:19:35;;;;;;;0.47;0.38;;;;;;;4.56;91.40;99747.59;4936913;29;20050;-71
2023/03/06 02:22:01;;;;;;;0.35;0.35;;;;;;;4.53;91.00;99739.47;4936683;29;20122;-71
2023/03/06 02:24:38;;;;;;;0.60;0.60;;;;;;;4.50;91.82;99751.59;4936456;29;20043;-71
2023/03/06 02:27:06;;;;;;;0.38;0.38;;;;;;;4.60;91.57;99742.38;4944061;28;20089;-70
2023/03/06 02:29:32;;;;;;;0.85;0.85;;;;;;;4.61;91.77;99741.25;4953945;28;20039;-71
2023/03/06 02:32:01;;;;;;;0.40;0.40;;;;;;;4.53;91.88;99744.81;4921494;29;20118;-71
2023/03/06 02:34:27;;;;;;;0.40;0.40;;;;;;;4.57;91.83;99745.69;4936626;29;20123;-72
2023/03/06 02:36:56;;;;;;;0.60;0.60;;;;;;;4.63;91.69;99744.34;4951855;28;20062;-72
2023/03/06 02:39:25;;;;;;;0.75;0.75;;;;;;;4.60;91.82;99737.03;4936188;29;20408;-71
2023/03/06 02:41:51;;;;;;;1.83;1.40;;;;;;;4.54;91.54;99743.72;4936864;29;20094;-71
2023/03/06 02:44:20;;;;;;;0.55;0.52;;;;;;;4.50;92.32;99735.63;4933044;29;20492;-71
2023/03/06 02:46:46;;;;;;;0.70;0.70;;;;;;;4.56;91.94;99736.94;4935919;29;20035;-72
2023/03/06 02:49:11;;;;;;;0.50;0.50;;;;;;;4.63;91.95;99727.59;4939307;28;20377;-71
2023/03/06 02:51:37;;;;;;;0.57;0.57;;;;;;;4.55;91.93;99724.72;4919190;29;20039;-71
2023/03/06 02:54:02;;;;;;;0.50;0.50;;;;;;;4.51;92.42;99725.72;4936561;29;20490;-72
2023/03/06 02:56:28;;;;;;;1.50;1.40;;;;;;;4.48;92.26;99723.72;4950319;28;20564;-71
2023/03/06 02:58:55;;;;;;;3.10;1.10;;;;;;;4.45;92.83;99724.41;4934233;28;20852;-71
2023/03/06 03:01:20;;;;;;;1.20;1.10;;;;;;;4.48;92.83;99727.19;4936248;28;20035;-71
2023/03/06 03:03:46;;;;;;;0.68;0.68;;;;;;;4.50;92.70;99718.84;4936696;29;20043;-71
2023/03/06 03:06:13;;;;;;;0.88;0.88;;;;;;;4.53;92.98;99718.94;4915792;29;20123;-71
2023/03/06 03:08:39;;;;;;;2.38;0.60;;;;;;;4.63;92.36;99722.25;4949165;29;20054;-71
2023/03/06 03:11:08;;;;;;;2.20;1.05;;;;;;;4.61;92.33;99721.81;4935876;29;20041;-71
2023/03/06 03:13:38;;;;;;;0.50;0.50;;;;;;;4.55;92.63;99713.25;4918032;29;20483;-72
2023/03/06 03:16:09;;;;;;;0.43;0.43;;;;;;;4.59;93.33;99716.81;4935944;29;20039;-71
2023/03/06 03:18:35;;;;;;;1.08;0.88;;;;;;;4.68;92.21;99706.81;4937011;28;20066;-71
2023/03/06 03:21:05;;;;;;;2.47;0.50;;;;;;;4.70;91.96;99701.91;4936202;29;20057;-71
2023/03/06 03:23:30;;;;;;;1.33;0.95;;;;;;;4.69;91.97;99680.91;4935600;29;20035;-71
2023/03/06 03:26:17;;;;;;;0.40;0.40;;;;;;;4.70;91.87;99688.59;4931944;29;20650;-73
2023/03/06 03:28:49;;;;;;;0.55;0.50;;;;;;;4.67;91.77;99681.25;4940086;28;20495;-71
2023/03/06 03:31:17;;;;;;;1.20;1.00;;;;;;;4.56;92.68;99688.19;4919264;29;20036;-71
2023/03/06 03:33:42;;;;;;;0.50;0.50;;;;;;;4.69;91.89;99680.91;4935695;29;20027;-71
2023/03/06 03:36:08;;;;;;;1.35;1.02;;;;;;;4.67;90.79;99689.25;4925215;29;20086;-71
2023/03/06 03:38:38;;;;;;;0.30;0.30;;;;;;;4.44;91.78;99685.53;4937590;28;20093;-71
2023/03/06 03:41:04;;;;;;;2.45;0.52;;;;;;;4.55;91.75;99683.94;4934874;29;20110;-72
2023/03/06 03:43:30;;;;;;;0.30;0.30;;;;;;;4.46;92.08;99678.78;4937392;28;20023;-71
2023/03/06 03:45:57;;;;;;;0.73;0.65;;;;;;;4.47;92.74;99664.31;4926019;29;20074;-72
2023/03/06 03:48:23;;;;;;;0.52;0.52;;;;;;;4.42;93.04;99672.56;4933563;28;20074;-72
2023/03/06 03:50:48;;;;;;;0.30;0.30;;;;;;;4.46;93.39;99675.31;4926257;29;20038;-71
2023/03/06 03:53:14;;;;;;;0.65;0.65;;;;;;;4.42;93.06;99677.09;4930596;29;20167;-72
2023/03/06 03:55:40;;;;;;;0.82;0.77;;;;;;;4.48;93.31;99673.09;4917582;28;20126;-73
2023/03/06 03:58:06;;;;;;;0.50;0.50;;;;;;;4.50;93.50;99676.97;4941951;29;20189;-72
2023/03/06 04:00:32;;;;;;;0.32;0.32;;;;;;;4.50;93.64;99665.53;4937955;28;20031;-71
2023/03/06 04:03:08;;;;;;;0.50;0.50;;;;;;;4.53;93.45;99667.50;4923720;29;20614;-71
2023/03/06 04:05:38;;;;;;;0.57;0.57;;;;;;;4.41;93.45;99673.66;4919597;29;20407;-71
2023/03/06 04:08:05;;;;;;;0.63;0.63;;;;;;;4.43;93.06;99670.69;4935095;29;20027;-72
2023/03/06 04:10:33;;;;;;;0.43;0.43;;;;;;;4.46;93.37;99667.31;4969385;23;20113;-59
2023/03/06 04:12:59;;;;;;;0.20;0.20;;;;;;;4.46;93.64;99665.44;4953414;28;20447;-58
2023/03/06 04:15:26;;;;;;;1.27;0.90;;;;;;;4.48;93.57;99659.78;4941652;28;20467;-59
2023/03/06 04:17:52;;;;;;;0.63;0.45;;;;;;;4.48;93.58;99662.44;4958000;28;20122;-58
2023/03/06 04:20:21;;;;;;;0.63;0.47;;;;;;;4.48;92.76;99657.09;4931494;28;20410;-59
2023/03/06 04:22:47;;;;;;;0.35;0.35;;;;;;;4.42;93.18;99661.91;4957091;28;20119;-59
2023/03/06 04:25:14;;;;;;;0.40;0.40;;;;;;;4.47;93.11;99655.56;4944169;28;20045;-59
2023/03/06 04:27:40;;;;;;;0.50;0.50;;;;;;;4.43;93.35;99662.69;4957453;28;20031;-59
2023/03/06 04:30:07;;;;;;;0.50;0.50;;;;;;;4.46;92.79;99654.78;4954779;28;20154;-58
2023/03/06 04:32:34;;;;;;;0.70;0.70;;;;;;;4.42;92.81;99653.13;4940043;28;20058;-57
2023/03/06 04:35:00;;;;;;;0.40;0.40;;;;;;;4.38;93.27;99645.03;4952504;28;20026;-61
2023/03/06 04:37:31;;;;;;;0.50;0.50;;;;;;;4.35;93.33;99650.28;4952056;28;20535;-59
2023/03/06 04:39:57;;;;;;;0.30;0.30;;;;;;;4.34;93.01;99638.81;4956896;28;20122;-59
2023/03/06 04:42:23;;;;;;;0.32;0.32;;;;;;;4.31;92.67;99642.19;4964257;28;20440;-59
2023/03/06 04:44:48;;;;;;;0.38;0.38;;;;;;;4.12;92.51;99638.56;4953118;28;20454;-59
2023/03/06 04:47:14;;;;;;;0.32;0.32;;;;;;;4.01;93.67;99640.13;4946578;28;20039;-59
2023/03/06 04:49:39;;;;;;;1.55;1.45;;;;;;;3.97;93.84;99634.69;4967999;28;20117;-58
2023/03/06 04:52:05;;;;;;;1.38;0.80;;;;;;;4.04;93.81;99636.81;4971482;28;20111;-59
2023/03/06 04:54:31;;;;;;;0.45;0.45;;;;;;;4.14;93.37;99629.09;4969555;28;20093;-59
2023/03/06 04:56:57;;;;;;;0.50;0.50;;;;;;;4.05;93.86;99635.69;4968527;28;20047;-58
2023/03/06 04:59:42;;;;;;;0.40;0.40;;;;;;;4.08;93.73;99625.16;4970675;28;20482;-60
2023/03/06 05:02:08;;;;;;;0.30;0.30;;;;;;;4.04;93.65;99632.25;4859795;29;20516;-59
2023/03/06 05:04:33;;;;;;;0.65;0.65;;;;;;;4.05;93.81;99625.81;4878624;29;20080;-59
2023/03/06 05:06:59;;;;;;;0.30;0.30;;;;;;;4.04;93.28;99631.47;4879099;29;20689;-59
2023/03/06 05:09:24;;;;;;;0.68;0.68;;;;;;;4.05;93.59;99625.03;4892604;29;20797;-59
2023/03/06 05:11:49;;;;;;;0.25;0.25;;;;;;;4.07;93.28;99617.47;4894442;29;20496;-59
2023/03/06 05:14:15;;;;;;;1.65;0.75;;;;;;;4.00;93.23;99628.72;4894838;29;20053;-59
2023/03/06 05:16:40;;;;;;;0.50;0.50;;;;;;;3.77;93.56;99618.88;4894949;29;20045;-57
2023/03/06 05:19:06;;;;;;;0.30;0.30;;;;;;;3.73;94.11;99620.66;4875359;29;20044;-57
2023/03/06 05:21:31;;;;;;;2.63;0.52;;;;;;;3.68;93.97;99622.44;4891808;29;20099;-58
2023/03/06 05:23:57;;;;;;;0.50;0.50;;;;;;;3.65;94.21;99609.78;4892362;29;20178;-58
2023/03/06 05:26:22;;;;;;;0.68;0.68;;;;;;;3.54;94.17;99621.22;4878935;29;20256;-56
2023/03/06 05:28:48;;;;;;;0.45;0.45;;;;;;;3.59;94.40;99616.44;4894800;29;20076;-57
2023/03/06 05:31:13;;;;;;;1.13;0.82;;;;;;;3.43;94.35;99614.78;4875192;29;20032;-58
2023/03/06 05:33:39;;;;;;;0.60;0.60;;;;;;;3.52;94.20;99616.22;4894497;29;20088;-58
2023/03/06 05:36:07;;;;;;;0.50;0.50;;;;;;;3.46;93.87;99614.91;4894317;29;20100;-61
2023/03/06 05:38:33;;;;;;;0.30;0.30;;;;;;;3.50;94.36;99615.78;4897510;28;20150;-57
2023/03/06 05:40:58;;;;;;;1.65;1.23;;;;;;;3.58;93.88;99609.56;4966105;28;20118;-58
2023/03/06 05:43:24;;;;;;;0.80;0.80;;;;;;;3.54;94.08;99615.91;4967008;28;20074;-58
2023/03/06 05:45:51;;;;;;;0.50;0.50;;;;;;;3.57;93.86;99613.34;4955421;28;20038;-58
2023/03/06 05:48:17;;;;;;;0.40;0.40;;;;;;;3.65;93.76;99611.69;4954602;28;20085;-58
2023/03/06 05:50:43;;;;;;;0.30;0.30;;;;;;;3.72;93.29;99614.53;4954175;28;20117;-58
2023/03/06 05:53:08;;;;;;;0.30;0.30;;;;;;;3.76;92.75;99604.00;4955407;28;20030;-59
2023/03/06 05:55:34;;;;;;;0.75;0.75;;;;;;;3.71;92.75;99606.91;4954962;28;20494;-59
2023/03/06 05:57:59;;;;;;;0.52;0.52;;;;;;;3.56;93.09;99598.47;4952700;28;20398;-57
2023/03/06 06:00:25;;;;;;;1.08;0.57;;;;;;;3.52;93.29;99600.25;4951647;28;20039;-59
2023/03/06 06:02:50;;;;;;;0.52;0.35;;;;;;;3.55;93.21;99604.91;4959867;28;20039;-59
2023/03/06 06:05:16;;;;;;;0.43;0.40;;;;;;;3.58;93.16;99595.50;4960404;28;20054;-58
2023/03/06 06:07:41;;;;;;;0.70;0.70;;;;;;;3.67;92.52;99601.47;4942185;28;20038;-57
2023/03/06 06:10:07;;;;;;;0.30;0.30;;;;;;;3.52;92.67;99605.56;4950304;28;20117;-58
2023/03/06 06:12:33;;;;;;;0.60;0.60;;;;;;;3.47;93.13;99599.69;4965609;28;20397;-59
2023/03/06 06:15:00;;;;;;;0.30;0.30;;;;;;;3.54;93.25;99602.59;4940950;28;20049;-57
2023/03/06 06:17:25;;;;;;;0.40;0.40;;;;;;;3.58;92.83;99604.25;4957962;28;20046;-57
2023/03/06 06:19:51;;;;;;;0.50;0.50;;;;;;;3.60;92.91;99602.03;4941882;28;20034;-59
2023/03/06 06:22:16;;;;;;;0.85;0.50;;;;;;;3.56;92.74;99603.78;4962032;28;20035;-59
2023/03/06 06:24:42;;;;;;;0.63;0.63;;;;;;;3.55;92.95;99606.78;4962546;28;20126;-59
2023/03/06 06:27:08;;;;;;;0.77;0.77;;;;;;;3.49;93.07;99598.25;4965167;28;20031;-58
2023/03/06 06:29:34;;;;;;;0.35;0.35;;;;;;;3.54;93.47;99603.34;4954334;28;20038;-59
2023/03/06 06:32:00;;;;;;;0.30;0.30;;;;;;;3.40;93.78;99608.25;4955519;28;20047;-59
2023/03/06 06:34:26;;;;;;;1.02;0.98;;;;;;;3.39;93.90;99605.91;4935717;28;20112;-58
2023/03/06 06:36:53;;;;;;;0.28;0.28;;;;;;;3.43;94.27;99606.78;4939908;28;20019;-59
2023/03/06 06:39:20;;;;;;;0.22;0.22;;;;;;;3.53;93.87;99609.78;4959155;28;20039;-59
2023/03/06 06:41:47;;;;;;;1.45;0.55;;;;;;;3.51;93.99;99608.56;4958671;28;20102;-59
2023/03/06 06:44:14;;;;;;;0.30;0.30;;;;;;;3.53;94.00;99617.00;4943235;28;21780;-59
2023/03/06 06:46:44;;;;;;;1.38;0.70;;;;;;;3.55;94.32;99618.22;4953878;28;20557;-59
2023/03/06 06:49:11;;;;;;;0.40;0.40;;;;;;;3.55;94.26;99614.78;4952017;28;20447;-60
2023/03/06 06:51:57;;;;;;;0.40;0.40;;;;;;;3.68;94.25;99614.44;4946725;28;22457;-58
2023/03/06 06:54:22;;;;;;;0.73;0.73;;;;;;;3.77;94.15;99613.53;4908264;29;20044;-58
2023/03/06 06:56:48;;;;;;;0.40;0.40;;;;;;;3.95;93.27;99604.22;4909004;29;20066;-59
2023/03/06 06:59:13;;;;;;;0.52;0.52;;;;;;;3.85;93.43;99599.34;4908943;29;20491;-55
2023/03/06 07:01:39;;;;;;;0.30;0.30;;;;;;;3.88;94.22;99606.66;4890515;29;20048;-58
2023/03/06 07:04:04;;;;;;;0.50;0.50;;;;;;;3.97;93.62;99596.66;4904149;29;20078;-57
2023/03/06 07:06:30;;;;;;;0.20;0.20;;;;;;;3.98;93.10;99604.31;4905860;29;20056;-59
2023/03/06 07:08:55;;;;;;;0.70;0.70;;;;;;;3.96;93.71;99600.41;4909359;29;20064;-59
2023/03/06 07:11:21;;;;;;;0.32;0.32;;;;;;;4.02;94.32;99604.41;4908783;29;20048;-58
2023/03/06 07:13:47;;;;;;;0.25;0.25;;;;;;;3.90;94.26;99609.75;4903306;29;20555;-58
2023/03/06 07:16:16;;;;;;;1.00;0.90;;;;;;;3.96;94.71;99611.06;4915186;29;20146;-56
2023/03/06 07:18:42;;;;;;;0.40;0.40;;;;;;;4.11;94.63;99605.81;4908230;29;20157;-59
2023/03/06 07:21:08;;;;;;;0.43;0.43;;;;;;;4.13;94.73;99600.16;4893170;29;20024;-59
2023/03/06 07:23:34;;;;;;;0.50;0.50;;;;;;;4.19;94.31;99594.25;4899779;29;20407;-60
2023/03/06 07:25:59;;;;;;;0.73;0.73;;;;;;;4.24;94.06;99609.25;4907067;29;20044;-59
2023/03/06 07:28:25;;;;;;;0.57;0.57;;;;;;;4.22;94.17;99595.47;4893436;29;20117;-59
2023/03/06 07:31:11;;;;;;;0.30;0.30;;;;;;;4.28;93.91;99608.19;4920808;28;20466;-60
2023/03/06 07:33:37;;;;;;;0.45;0.45;;;;;;;4.26;93.98;99602.44;4874335;29;20135;-60
2023/03/06 07:36:07;;;;;;;0.38;0.38;;;;;;;4.43;93.24;99604.81;4874722;29;20048;-59
2023/03/06 07:38:33;;;;;;;0.60;0.60;;;;;;;4.42;93.67;99615.81;4888871;29;20064;-59
2023/03/06 07:40:58;;;;;;;0.40;0.40;;;;;;;4.45;93.79;99609.81;4889297;29;20044;-59
2023/03/06 07:43:24;;;;;;;0.30;0.30;;;;;;;4.39;93.91;99614.59;4888578;29;20044;-59
2023/03/06 07:45:59;;;;;;;0.30;0.30;;;;;;;4.58;93.35;99608.66;4884646;29;20132;-57
2023/03/06 07:48:25;;;;;;;0.30;0.30;;;;;;;4.60;93.65;99603.75;4887102;29;20119;-59
2023/03/06 07:50:59;;;;;;;0.30;0.30;;;;;;;4.52;93.24;99610.78;4894423;29;20543;-59
2023/03/06 07:53:24;;;;;;;1.02;0.43;;;;;;;4.57;94.06;99607.09;4874511;29;20581;-59
2023/03/06 07:55:51;;;;;;;0.70;0.70;;;;;;;4.68;94.07;99612.72;4871237;29;20120;-59
2023/03/06 07:58:16;;;;;;;0.65;0.65;;;;;;;4.95;93.45;99614.56;4874868;29;20183;-58
2023/03/06 08:00:42;;;;;;;0.43;0.43;;;;;;;4.99;92.91;99621.56;4878978;29;20041;-60
2023/03/06 08:03:10;;;;;;;1.48;0.93;;;;;;;5.10;92.54;99621.81;4890403;29;20492;-59
2023/03/06 08:05:35;;;;;;;1.13;0.40;;;;;;;5.19;91.75;99625.84;4880883;29;20124;-59
2023/03/06 08:08:01;;;;;;;0.30;0.30;;;;;;;5.28;91.68;99621.09;4889082;29;20571;-59
2023/03/06 08:10:26;;;;;;;0.73;0.73;;;;;;;5.41;90.30;99632.47;4923061;28;20043;-59
2023/03/06 08:12:52;;;;;;;0.50;0.50;;;;;;;5.24;89.40;99624.81;4968110;28;20738;-60
2023/03/06 08:15:17;;;;;;;0.60;0.60;;;;;;;5.25;90.24;99629.03;4949732;28;20109;-60
2023/03/06 08:17:43;;;;;;;2.50;1.27;;;;;;;5.13;90.00;99621.88;4967269;28;20034;-60
2023/03/06 08:20:09;;;;;;;0.80;0.80;;;;;;;4.83;91.17;99625.28;4968248;28;20058;-60
2023/03/06 08:22:35;;;;;;;0.75;0.50;;;;;;;4.82;92.38;99637.09;4948231;28;20134;-58
2023/03/06 08:25:01;;;;;;;1.00;1.00;;;;;;;4.96;91.20;99635.56;4961830;28;20114;-60
2023/03/06 08:27:26;;;;;;;1.45;0.75;;;;;;;5.09;91.34;99636.28;4932787;28;20043;-59
2023/03/06 08:29:52;;;;;;;1.77;0.90;;;;;;;5.23;89.98;99636.59;4950427;28;20065;-60
2023/03/06 08:32:17;;;;;;;0.60;0.60;;;;;;;5.18;89.61;99645.66;4947646;28;20027;-59
2023/03/06 08:34:44;;;;;;;1.20;1.20;;;;;;;5.06;90.07;99648.41;4949269;28;20035;-60
2023/03/06 08:37:10;;;;;;;1.17;0.80;;;;;;;4.82;91.29;99642.44;4953987;28;20122;-60
2023/03/06 08:39:35;;;;;;;0.30;0.30;;;;;;;4.81;91.54;99649.63;4956979;28;20501;-58
2023/03/06 08:42:01;;;;;;;0.93;0.70;;;;;;;5.12;89.96;99648.91;4937667;28;20035;-59
2023/03/06 08:44:26;;;;;;;0.50;0.50;;;;;;;5.13;89.50;99651.22;4972428;28;20034;-60
2023/03/06 08:46:52;;;;;;;2.38;0.82;;;;;;;4.97;90.09;99650.47;4960243;28;20571;-60
2023/03/06 08:49:17;;;;;;;4.10;1.02;;;;;;;4.86;90.92;99646.72;4958936;28;20062;-60
2023/03/06 08:51:43;;;;;;;1.80;1.13;;;;;;;4.80;91.53;99650.00;4955986;28;20043;-60
2023/03/06 08:54:11;;;;;;;0.63;0.63;;;;;;;4.99;90.96;99650.88;4955811;28;20031;-59
2023/03/06 08:56:37;;;;;;;0.75;0.75;;;;;;;5.13;90.69;99651.22;4965119;28;20085;-59
2023/03/06 08:59:04;;;;;;;0.82;0.82;;;;;;;5.13;90.61;99653.16;4971194;28;20058;-60
2023/03/06 09:01:33;;;;;;;1.63;1.05;;;;;;;5.08;90.50;99662.16;4970247;28;20122;-59
2023/03/06 09:04:02;;;;;;;0.40;0.40;;;;;;;4.85;92.16;99652.41;4963680;28;20106;-59
2023/03/06 09:06:31;;;;;;;0.73;0.70;;;;;;;5.08;91.36;99662.16;4956272;28;20042;-60
2023/03/06 09:08:56;;;;;;;0.50;0.50;;;;;;;5.15;91.66;99654.34;4974087;28;20087;-59
2023/03/06 09:11:24;;;;;;;0.88;0.88;;;;;;;5.18;90.25;99650.22;4955462;28;20568;-60
2023/03/06 09:13:49;;;;;;;0.85;0.85;;;;;;;5.13;91.52;99664.56;4973965;28;20494;-58
2023/03/06 09:16:15;;;;;;;0.47;0.47;;;;;;;5.01;91.84;99655.88;4969294;28;20038;-59
2023/03/06 09:18:41;;;;;;;1.10;0.85;;;;;;;5.27;91.76;99662.28;4962692;28;20667;-55
2023/03/06 09:21:07;;;;;;;1.27;1.27;;;;;;;5.52;90.15;99660.19;4958782;28;20394;-59
2023/03/06 09:23:33;;;;;;;0.52;0.52;;;;;;;5.48;90.11;99660.13;4958533;28;20110;-60
2023/03/06 09:26:01;;;;;;;1.05;1.05;;;;;;;5.64;89.99;99652.09;4958950;28;20500;-59
2023/03/06 09:28:27;;;;;;;0.63;0.63;;;;;;;5.69;88.90;99665.19;4957019;28;20121;-58
2023/03/06 09:30:53;;;;;;;0.50;0.50;;;;;;;5.77;88.79;99666.13;4943772;28;20019;-59
2023/03/06 09:33:19;;;;;;;0.70;0.70;;;;;;;5.78;89.21;99655.09;4961096;28;20027;-60
2023/03/06 09:35:53;;;;;;;0.70;0.70;;;;;;;5.92;89.14;99662.69;4960951;28;20035;-60
2023/03/06 09:38:21;;;;;;;1.13;1.10;;;;;;;6.02;88.07;99662.16;4973839;28;20034;-59
2023/03/06 09:41:02;;;;;;;0.30;0.30;;;;;;;6.12;87.49;99667.72;4972713;28;20037;-61
2023/03/06 09:43:37;;;;;;;0.57;0.57;;;;;;;6.05;88.02;99666.78;4968989;28;20116;-60
2023/03/06 09:46:21;;;;;;;0.88;0.85;;;;;;;6.18;88.30;99669.00;4956118;28;20120;-59
2023/03/06 09:48:59;;;;;;;0.68;0.63;;;;;;;6.32;87.54;99666.63;4963693;28;20038;-60
2023/03/06 09:51:34;;;;;;;0.70;0.65;;;;;;;6.46;87.53;99671.50;4966369;28;20261;-61
2023/03/06 09:54:12;;;;;;;1.88;1.52;;;;;;;6.47;87.92;99667.69;4973241;28;20035;-61
2023/03/06 09:56:45;;;;;;;0.60;0.32;;;;;;;6.39;87.31;99676.69;4972867;28;20077;-61
2023/03/06 09:59:19;;;;;;;0.50;0.50;;;;;;;6.63;88.15;99671.09;4966733;28;20038;-61
2023/03/06 10:02:12;;;;;;;2.72;0.63;;;;;;;6.76;86.96;99661.78;4971830;28;20393;-61
2023/03/06 10:04:45;;;;;;;0.68;0.68;;;;;;;7.08;86.16;99660.44;4958707;28;20062;-61
2023/03/06 10:07:20;;;;;;;0.50;0.50;;;;;;;7.26;84.35;99661.53;4972595;28;20704;-60
2023/03/06 10:10:05;;;;;;;0.30;0.30;;;;;;;7.22;83.48;99667.97;4983741;23;20035;-51
2023/03/06 10:12:43;;;;;;;0.30;0.30;;;;;;;7.55;82.36;99667.38;4929471;29;20054;-47
2023/03/06 10:15:19;;;;;;;0.28;0.28;;;;;;;7.65;81.79;99667.53;4919677;29;20123;-47
2023/03/06 10:17:45;;;;;;;0.40;0.40;;;;;;;7.73;82.75;99668.41;4909927;29;20139;-50
2023/03/06 10:20:15;;;;;;;0.45;0.45;;;;;;;7.94;82.07;99660.69;4909329;29;20099;-46
2023/03/06 10:23:01;;;;;;;0.70;0.68;;;;;;;8.11;80.58;99660.16;4913305;29;20043;-50
2023/03/06 10:25:35;;;;;;;2.85;0.95;;;;;;;7.92;80.19;99658.38;4909909;29;20059;-53
2023/03/06 10:28:16;;;;;;;0.45;0.32;;;;;;;7.98;79.06;99653.47;4912157;29;20368;-48
2023/03/06 10:30:59;;;;;;;0.30;0.30;;;;;;;8.15;78.05;99652.94;4912370;29;20483;-48
2023/03/06 10:33:45;;;;;;;0.95;0.90;;;;;;;7.66;80.48;99658.38;4912451;29;20044;-51
2023/03/06 10:36:14;;;;;;;0.38;0.38;;;;;;;7.60;80.52;99659.81;4906337;29;20377;-47
2023/03/06 10:38:40;;;;;;;0.40;0.35;;;;;;;7.57;80.51;99657.84;4912525;29;20047;-48
2023/03/06 10:41:06;;;;;;;2.63;0.50;;;;;;;7.36;82.60;99651.34;4912347;29;20039;-46
2023/03/06 10:43:36;;;;;;;0.40;0.40;;;;;;;7.68;80.10;99649.97;4911474;29;20403;-45
2023/03/06 10:46:03;;;;;;;1.20;0.93;;;;;;;7.69;81.33;99646.16;4911056;29;20036;-44
2023/03/06 10:48:34;;;;;;;0.40;0.40;;;;;;;7.91;80.76;99643.44;4914424;29;20031;-51
2023/03/06 10:51:15;;;;;;;0.40;0.35;;;;;;;8.19;79.34;99649.19;4912120;29;20543;-46
2023/03/06 10:53:52;;;;;;;0.50;0.50;;;;;;;8.19;79.75;99643.81;4914338;29;20114;-50
2023/03/06 10:56:39;;;;;;;0.50;0.50;;;;;;;8.41;78.27;99644.91;4897231;29;20103;-46
2023/03/06 10:59:16;;;;;;;1.42;0.80;;;;;;;8.35;76.82;99651.72;4911828;29;20044;-45
2023/03/06 11:01:50;;;;;;;0.60;0.60;;;;;;;8.42;76.58;99649.13;4902461;29;20051;-47
2023/03/06 11:04:23;;;;;;;0.57;0.57;;;;;;;8.29;77.20;99647.03;4909629;29;20071;-48
2023/03/06 11:07:05;;;;;;;0.45;0.43;;;;;;;8.56;75.76;99643.16;4911737;29;20050;-45
2023/03/06 11:09:32;;;;;;;1.35;0.75;;;;;;;8.48;75.54;99638.84;4914035;29;20036;-48
2023/03/06 11:12:37;;;;;;;0.47;0.47;;;;;;;8.74;74.43;99646.81;4913435;29;20031;-45
2023/03/06 11:15:05;;;;;;;0.55;0.55;;;;;;;8.83;73.97;99631.97;4836718;29;20055;-47
2023/03/06 11:17:33;;;;;;;0.30;0.30;;;;;;;8.82;74.07;99633.13;4899185;29;20064;-46
2023/03/06 11:20:13;;;;;;;0.40;0.40;;;;;;;8.59;75.39;99637.84;4910009;29;20435;-52
2023/03/06 11:22:39;;;;;;;0.65;0.65;;;;;;;8.65;73.68;99639.03;4905529;29;20046;-46
2023/03/06 11:25:12;;;;;;;0.45;0.45;;;;;;;8.14;74.33;99636.09;4913490;29;20123;-45
2023/03/06 11:27:42;;;;;;;0.47;0.47;;;;;;;7.99;74.44;99644.31;4913136;29;20100;-45
2023/03/06 11:30:30;;;;;;;2.17;0.75;;;;;;;7.93;75.37;99635.03;4914012;29;20543;-45
2023/03/06 11:33:00;;;;;;;1.00;0.65;;;;;;;7.94;75.01;99623.94;4913905;29;20036;-45
2023/03/06 11:36:03;;;;;;;0.63;0.53;;;;;;;8.14;74.19;99624.59;4911183;29;20040;-44
2023/03/06 11:38:48;;;;;;;0.30;0.30;;;;;;;7.63;76.07;99629.63;4912027;29;20060;-45
2023/03/06 11:41:32;;;;;;;0.50;0.50;;;;;;;7.91;75.35;99626.59;4888172;29;20039;-48
2023/03/06 11:44:23;;;;;;;0.38;0.38;;;;;;;8.11;74.32;99622.63;4912682;29;20475;-47
2023/03/06 11:47:10;;;;;;;1.67;0.80;;;;;;;8.48;72.55;99631.56;4909788;29;20036;-46
2023/03/06 11:49:43;;;;;;;0.80;0.63;;;;;;;8.48;72.69;99623.50;4912432;29;20279;-47